CheckWX is a tool to help pilots better visualize weather data.  It is not intended as a substitute for an official pre-flight weather briefing.

12:26:51 UTC

TKPK TAF
Robert L. Bradshaw International Airport
Basseterre, Saint Kitts and Nevis
TKPK 221139Z 2212/2312 08011KT P6SM VCSH FEW022 SCT050 FM221330 08015KT P6SM FEW024 SCT050 FM222200 07009KT P6SM FEW016 SCT020

Mar-22@
12:00 UTC

Mar-22 @ 12:00 UTC

Mar-22@
13:30 UTC

Mar-22 @ 13:30 UTC

TKPK 221139Z 2212/2312 08011KT P6SM VCSH FEW022 SCT050
Wind
  • 080° at 11 KTS
Cloud Levels
  • Few at 2,200' AGL
  • Scattered at 5,000' AGL

Mar-22@
13:30 UTC

Mar-22 @ 13:30 UTC

Mar-22@
22:00 UTC

Mar-22 @ 22:00 UTC

FM221330 08015KT P6SM FEW024 SCT050

From

From Standard forecast or significant change

Wind
  • 080° at 15 KTS
Cloud Levels
  • Few at 2,400' AGL
  • Scattered at 5,000' AGL

Mar-22@
22:00 UTC

Mar-22 @ 22:00 UTC

Mar-23@
12:00 UTC

Mar-23 @ 12:00 UTC

FM222200 07009KT P6SM FEW016 SCT020

From

From Standard forecast or significant change

Wind
  • 070° at 9 KTS
Cloud Levels
  • Few at 1,600' AGL
  • Scattered at 2,000' AGL